sensor_id;sensor_type;location;lat;lon;timestamp;P1;durP1;ratioP1;P2;durP2;ratioP2
18391;SDS011;9322;50.932;5.318;2022-07-12T00:01:26;6.40;;;3.10;;
18391;SDS011;9322;50.932;5.318;2022-07-12T00:03:52;5.17;;;3.00;;
18391;SDS011;9322;50.932;5.318;2022-07-12T00:06:17;6.93;;;3.20;;
18391;SDS011;9322;50.932;5.318;2022-07-12T00:08:43;7.30;;;3.83;;
18391;SDS011;9322;50.932;5.318;2022-07-12T00:11:09;9.20;;;3.60;;
18391;SDS011;9322;50.932;5.318;2022-07-12T00:13:34;4.80;;;3.50;;
18391;SDS011;9322;50.932;5.318;2022-07-12T00:16:00;5.73;;;3.40;;
18391;SDS011;9322;50.932;5.318;2022-07-12T00:18:26;6.70;;;3.47;;
18391;SDS011;9322;50.932;5.318;2022-07-12T00:20:51;9.40;;;3.60;;
18391;SDS011;9322;50.932;5.318;2022-07-12T00:23:17;8.57;;;4.23;;
18391;SDS011;9322;50.932;5.318;2022-07-12T00:25:43;7.53;;;4.53;;
18391;SDS011;9322;50.932;5.318;2022-07-12T00:28:09;6.83;;;3.83;;
18391;SDS011;9322;50.932;5.318;2022-07-12T00:30:34;9.47;;;4.13;;
18391;SDS011;9322;50.932;5.318;2022-07-12T00:33:00;8.43;;;3.83;;
18391;SDS011;9322;50.932;5.318;2022-07-12T00:35:26;6.20;;;3.73;;
18391;SDS011;9322;50.932;5.318;2022-07-12T00:37:52;6.77;;;3.80;;
18391;SDS011;9322;50.932;5.318;2022-07-12T00:40:17;5.33;;;3.80;;
18391;SDS011;9322;50.932;5.318;2022-07-12T00:42:43;13.17;;;4.47;;
18391;SDS011;9322;50.932;5.318;2022-07-12T00:45:09;10.20;;;4.63;;
18391;SDS011;9322;50.932;5.318;2022-07-12T00:47:41;9.77;;;4.33;;
18391;SDS011;9322;50.932;5.318;2022-07-12T00:50:13;6.73;;;4.40;;
18391;SDS011;9322;50.932;5.318;2022-07-12T00:52:40;9.17;;;4.83;;
18391;SDS011;9322;50.932;5.318;2022-07-12T00:55:07;6.00;;;4.53;;
18391;SDS011;9322;50.932;5.318;2022-07-12T00:57:34;7.57;;;4.63;;
18391;SDS011;9322;50.932;5.318;2022-07-12T01:00:01;9.03;;;5.10;;
18391;SDS011;9322;50.932;5.318;2022-07-12T01:02:28;6.33;;;4.37;;
18391;SDS011;9322;50.932;5.318;2022-07-12T01:04:54;8.07;;;4.47;;
18391;SDS011;9322;50.932;5.318;2022-07-12T01:07:20;8.00;;;4.40;;
18391;SDS011;9322;50.932;5.318;2022-07-12T01:09:49;8.07;;;4.80;;
18391;SDS011;9322;50.932;5.318;2022-07-12T01:12:16;7.03;;;4.63;;
18391;SDS011;9322;50.932;5.318;2022-07-12T01:14:43;7.77;;;4.87;;
18391;SDS011;9322;50.932;5.318;2022-07-12T01:17:09;8.73;;;5.50;;
18391;SDS011;9322;50.932;5.318;2022-07-12T01:19:36;7.43;;;4.70;;
18391;SDS011;9322;50.932;5.318;2022-07-12T01:22:04;10.83;;;5.47;;
18391;SDS011;9322;50.932;5.318;2022-07-12T01:24:34;9.20;;;5.60;;
18391;SDS011;9322;50.932;5.318;2022-07-12T01:27:00;9.20;;;5.07;;
18391;SDS011;9322;50.932;5.318;2022-07-12T01:29:27;10.93;;;5.00;;
18391;SDS011;9322;50.932;5.318;2022-07-12T01:31:53;6.63;;;4.57;;
18391;SDS011;9322;50.932;5.318;2022-07-12T01:34:20;7.40;;;4.83;;
18391;SDS011;9322;50.932;5.318;2022-07-12T01:36:46;7.20;;;4.93;;
18391;SDS011;9322;50.932;5.318;2022-07-12T01:39:13;8.43;;;5.40;;
18391;SDS011;9322;50.932;5.318;2022-07-12T01:41:38;8.63;;;6.37;;
18391;SDS011;9322;50.932;5.318;2022-07-12T01:44:05;11.57;;;7.00;;
18391;SDS011;9322;50.932;5.318;2022-07-12T01:46:31;13.90;;;7.43;;
18391;SDS011;9322;50.932;5.318;2022-07-12T01:48:57;9.70;;;6.80;;
18391;SDS011;9322;50.932;5.318;2022-07-12T01:51:23;11.03;;;6.90;;
18391;SDS011;9322;50.932;5.318;2022-07-12T01:53:48;11.07;;;7.00;;
18391;SDS011;9322;50.932;5.318;2022-07-12T01:56:14;11.90;;;6.90;;
18391;SDS011;9322;50.932;5.318;2022-07-12T01:58:41;10.10;;;7.10;;
18391;SDS011;9322;50.932;5.318;2022-07-12T02:01:08;13.63;;;7.00;;
18391;SDS011;9322;50.932;5.318;2022-07-12T02:03:36;13.60;;;7.00;;
18391;SDS011;9322;50.932;5.318;2022-07-12T02:06:02;12.20;;;6.90;;
18391;SDS011;9322;50.932;5.318;2022-07-12T02:08:28;12.97;;;6.73;;
18391;SDS011;9322;50.932;5.318;2022-07-12T02:10:54;13.50;;;6.57;;
18391;SDS011;9322;50.932;5.318;2022-07-12T02:13:20;8.97;;;5.73;;
18391;SDS011;9322;50.932;5.318;2022-07-12T02:15:45;9.70;;;6.13;;
18391;SDS011;9322;50.932;5.318;2022-07-12T02:18:11;10.23;;;6.17;;
18391;SDS011;9322;50.932;5.318;2022-07-12T02:20:37;13.90;;;5.77;;
18391;SDS011;9322;50.932;5.318;2022-07-12T02:23:02;10.00;;;6.07;;
18391;SDS011;9322;50.932;5.318;2022-07-12T02:25:28;12.07;;;6.50;;
18391;SDS011;9322;50.932;5.318;2022-07-12T02:27:54;15.60;;;6.00;;
18391;SDS011;9322;50.932;5.318;2022-07-12T02:30:19;8.70;;;5.50;;
18391;SDS011;9322;50.932;5.318;2022-07-12T02:32:45;12.13;;;6.03;;
18391;SDS011;9322;50.932;5.318;2022-07-12T02:35:11;9.53;;;6.03;;
18391;SDS011;9322;50.932;5.318;2022-07-12T02:37:36;10.27;;;6.67;;
18391;SDS011;9322;50.932;5.318;2022-07-12T02:40:03;11.93;;;7.33;;
18391;SDS011;9322;50.932;5.318;2022-07-12T02:42:48;10.60;;;6.63;;
18391;SDS011;9322;50.932;5.318;2022-07-12T02:45:14;12.10;;;7.20;;
18391;SDS011;9322;50.932;5.318;2022-07-12T02:47:40;12.03;;;7.67;;
18391;SDS011;9322;50.932;5.318;2022-07-12T02:50:07;12.37;;;8.03;;
18391;SDS011;9322;50.932;5.318;2022-07-12T02:52:33;12.63;;;8.03;;
18391;SDS011;9322;50.932;5.318;2022-07-12T02:54:59;13.23;;;7.83;;
18391;SDS011;9322;50.932;5.318;2022-07-12T02:57:25;15.80;;;9.30;;
18391;SDS011;9322;50.932;5.318;2022-07-12T02:59:50;14.40;;;9.10;;
18391;SDS011;9322;50.932;5.318;2022-07-12T03:02:16;14.00;;;8.97;;
18391;SDS011;9322;50.932;5.318;2022-07-12T03:04:42;13.10;;;8.17;;
18391;SDS011;9322;50.932;5.318;2022-07-12T03:07:08;19.53;;;10.63;;
18391;SDS011;9322;50.932;5.318;2022-07-12T03:09:33;15.33;;;9.77;;
18391;SDS011;9322;50.932;5.318;2022-07-12T03:12:00;18.20;;;11.17;;
18391;SDS011;9322;50.932;5.318;2022-07-12T03:14:26;17.53;;;11.13;;
18391;SDS011;9322;50.932;5.318;2022-07-12T03:16:51;17.73;;;10.13;;
18391;SDS011;9322;50.932;5.318;2022-07-12T03:19:17;16.23;;;10.50;;
18391;SDS011;9322;50.932;5.318;2022-07-12T03:21:43;20.37;;;11.40;;
18391;SDS011;9322;50.932;5.318;2022-07-12T03:24:09;19.43;;;11.27;;
18391;SDS011;9322;50.932;5.318;2022-07-12T03:26:35;17.60;;;11.20;;
18391;SDS011;9322;50.932;5.318;2022-07-12T03:29:01;20.67;;;11.77;;
18391;SDS011;9322;50.932;5.318;2022-07-12T03:31:27;20.90;;;12.27;;
18391;SDS011;9322;50.932;5.318;2022-07-12T03:33:53;18.67;;;11.80;;
18391;SDS011;9322;50.932;5.318;2022-07-12T03:36:19;19.70;;;11.77;;
18391;SDS011;9322;50.932;5.318;2022-07-12T03:38:45;21.30;;;12.63;;
18391;SDS011;9322;50.932;5.318;2022-07-12T03:41:11;20.63;;;12.57;;
18391;SDS011;9322;50.932;5.318;2022-07-12T03:43:37;22.77;;;12.27;;
18391;SDS011;9322;50.932;5.318;2022-07-12T03:46:02;19.27;;;11.77;;
18391;SDS011;9322;50.932;5.318;2022-07-12T03:48:28;25.60;;;12.50;;
18391;SDS011;9322;50.932;5.318;2022-07-12T03:50:54;20.83;;;12.10;;
18391;SDS011;9322;50.932;5.318;2022-07-12T03:53:21;18.90;;;11.87;;
18391;SDS011;9322;50.932;5.318;2022-07-12T03:55:47;20.80;;;11.87;;
18391;SDS011;9322;50.932;5.318;2022-07-12T03:58:12;23.23;;;12.10;;
18391;SDS011;9322;50.932;5.318;2022-07-12T04:00:38;19.53;;;11.23;;
18391;SDS011;9322;50.932;5.318;2022-07-12T04:03:07;18.63;;;11.03;;
18391;SDS011;9322;50.932;5.318;2022-07-12T04:05:35;20.20;;;12.03;;
18391;SDS011;9322;50.932;5.318;2022-07-12T04:08:02;20.23;;;10.93;;
18391;SDS011;9322;50.932;5.318;2022-07-12T04:10:28;21.73;;;11.70;;
18391;SDS011;9322;50.932;5.318;2022-07-12T04:12:53;19.27;;;11.10;;
18391;SDS011;9322;50.932;5.318;2022-07-12T04:15:19;19.30;;;10.80;;
18391;SDS011;9322;50.932;5.318;2022-07-12T04:17:45;19.07;;;10.87;;
18391;SDS011;9322;50.932;5.318;2022-07-12T04:20:11;17.50;;;10.23;;
18391;SDS011;9322;50.932;5.318;2022-07-12T04:22:37;18.97;;;9.77;;
18391;SDS011;9322;50.932;5.318;2022-07-12T04:25:04;18.67;;;10.67;;
18391;SDS011;9322;50.932;5.318;2022-07-12T04:27:33;17.47;;;9.90;;
18391;SDS011;9322;50.932;5.318;2022-07-12T04:29:59;18.43;;;9.97;;
18391;SDS011;9322;50.932;5.318;2022-07-12T04:32:25;16.13;;;10.37;;
18391;SDS011;9322;50.932;5.318;2022-07-12T04:34:50;16.37;;;10.27;;
18391;SDS011;9322;50.932;5.318;2022-07-12T04:37:16;16.50;;;9.87;;
18391;SDS011;9322;50.932;5.318;2022-07-12T04:39:42;17.53;;;9.50;;
18391;SDS011;9322;50.932;5.318;2022-07-12T04:42:07;15.03;;;9.37;;
18391;SDS011;9322;50.932;5.318;2022-07-12T04:44:33;20.70;;;9.43;;
18391;SDS011;9322;50.932;5.318;2022-07-12T04:46:59;24.17;;;8.70;;
18391;SDS011;9322;50.932;5.318;2022-07-12T04:49:24;16.60;;;7.43;;
18391;SDS011;9322;50.932;5.318;2022-07-12T04:51:50;12.38;;;5.88;;
18391;SDS011;9322;50.932;5.318;2022-07-12T04:54:16;14.40;;;6.40;;
18391;SDS011;9322;50.932;5.318;2022-07-12T04:56:41;11.02;;;5.80;;
18391;SDS011;9322;50.932;5.318;2022-07-12T04:59:07;10.05;;;5.10;;
18391;SDS011;9322;50.932;5.318;2022-07-12T05:01:32;8.98;;;4.47;;
18391;SDS011;9322;50.932;5.318;2022-07-12T05:03:58;7.53;;;5.03;;
18391;SDS011;9322;50.932;5.318;2022-07-12T05:06:24;11.02;;;5.15;;
18391;SDS011;9322;50.932;5.318;2022-07-12T05:08:50;10.68;;;5.70;;
18391;SDS011;9322;50.932;5.318;2022-07-12T05:11:16;11.13;;;5.43;;
18391;SDS011;9322;50.932;5.318;2022-07-12T05:13:42;13.30;;;6.03;;
18391;SDS011;9322;50.932;5.318;2022-07-12T05:16:08;8.63;;;5.80;;
18391;SDS011;9322;50.932;5.318;2022-07-12T05:18:34;14.75;;;6.45;;
18391;SDS011;9322;50.932;5.318;2022-07-12T05:21:00;9.50;;;5.75;;
18391;SDS011;9322;50.932;5.318;2022-07-12T05:23:26;12.13;;;5.90;;
18391;SDS011;9322;50.932;5.318;2022-07-12T05:25:52;10.48;;;6.07;;
18391;SDS011;9322;50.932;5.318;2022-07-12T05:28:17;12.00;;;6.18;;
18391;SDS011;9322;50.932;5.318;2022-07-12T05:30:43;10.85;;;6.53;;
18391;SDS011;9322;50.932;5.318;2022-07-12T05:33:09;9.88;;;7.13;;
18391;SDS011;9322;50.932;5.318;2022-07-12T05:35:37;11.57;;;6.70;;
18391;SDS011;9322;50.932;5.318;2022-07-12T05:38:02;12.23;;;6.60;;
18391;SDS011;9322;50.932;5.318;2022-07-12T05:40:28;10.15;;;6.43;;
18391;SDS011;9322;50.932;5.318;2022-07-12T05:42:54;12.30;;;6.82;;
18391;SDS011;9322;50.932;5.318;2022-07-12T05:45:20;11.65;;;6.45;;
18391;SDS011;9322;50.932;5.318;2022-07-12T05:47:47;12.73;;;7.00;;
18391;SDS011;9322;50.932;5.318;2022-07-12T05:50:13;9.80;;;7.32;;
18391;SDS011;9322;50.932;5.318;2022-07-12T05:52:39;9.38;;;7.15;;
18391;SDS011;9322;50.932;5.318;2022-07-12T05:55:23;11.38;;;8.00;;
18391;SDS011;9322;50.932;5.318;2022-07-12T05:57:48;11.95;;;8.35;;
18391;SDS011;9322;50.932;5.318;2022-07-12T06:00:14;12.65;;;8.80;;
18391;SDS011;9322;50.932;5.318;2022-07-12T06:02:40;14.02;;;8.63;;
18391;SDS011;9322;50.932;5.318;2022-07-12T06:05:06;13.80;;;8.77;;
18391;SDS011;9322;50.932;5.318;2022-07-12T06:07:32;16.83;;;9.45;;
18391;SDS011;9322;50.932;5.318;2022-07-12T06:09:58;17.23;;;9.57;;
18391;SDS011;9322;50.932;5.318;2022-07-12T06:12:24;13.75;;;9.38;;
18391;SDS011;9322;50.932;5.318;2022-07-12T06:14:50;14.20;;;8.70;;
18391;SDS011;9322;50.932;5.318;2022-07-12T06:17:15;11.95;;;9.82;;
18391;SDS011;9322;50.932;5.318;2022-07-12T06:19:46;16.27;;;9.82;;
18391;SDS011;9322;50.932;5.318;2022-07-12T06:22:12;14.90;;;9.98;;
18391;SDS011;9322;50.932;5.318;2022-07-12T06:24:37;14.95;;;9.05;;
18391;SDS011;9322;50.932;5.318;2022-07-12T06:27:03;14.70;;;8.73;;
18391;SDS011;9322;50.932;5.318;2022-07-12T06:29:29;9.57;;;8.40;;
18391;SDS011;9322;50.932;5.318;2022-07-12T06:31:55;11.40;;;8.50;;
18391;SDS011;9322;50.932;5.318;2022-07-12T06:34:21;13.30;;;8.43;;
18391;SDS011;9322;50.932;5.318;2022-07-12T06:36:46;11.75;;;8.45;;
18391;SDS011;9322;50.932;5.318;2022-07-12T06:39:12;12.95;;;8.43;;
18391;SDS011;9322;50.932;5.318;2022-07-12T06:41:38;11.00;;;8.57;;
18391;SDS011;9322;50.932;5.318;2022-07-12T06:44:03;10.07;;;7.82;;
18391;SDS011;9322;50.932;5.318;2022-07-12T06:46:29;13.50;;;8.38;;
18391;SDS011;9322;50.932;5.318;2022-07-12T06:48:55;15.95;;;7.93;;
18391;SDS011;9322;50.932;5.318;2022-07-12T06:51:21;11.98;;;7.88;;
18391;SDS011;9322;50.932;5.318;2022-07-12T06:53:46;10.40;;;7.85;;
18391;SDS011;9322;50.932;5.318;2022-07-12T06:56:12;18.10;;;8.20;;
18391;SDS011;9322;50.932;5.318;2022-07-12T06:58:38;10.40;;;7.57;;
18391;SDS011;9322;50.932;5.318;2022-07-12T07:01:03;12.88;;;7.57;;
18391;SDS011;9322;50.932;5.318;2022-07-12T07:03:29;9.25;;;7.43;;
18391;SDS011;9322;50.932;5.318;2022-07-12T07:05:55;10.57;;;7.93;;
18391;SDS011;9322;50.932;5.318;2022-07-12T07:08:20;12.07;;;8.48;;
18391;SDS011;9322;50.932;5.318;2022-07-12T07:10:46;11.38;;;8.35;;
18391;SDS011;9322;50.932;5.318;2022-07-12T07:13:11;13.63;;;8.13;;
18391;SDS011;9322;50.932;5.318;2022-07-12T07:15:40;9.88;;;7.60;;
18391;SDS011;9322;50.932;5.318;2022-07-12T07:18:06;14.07;;;8.13;;
18391;SDS011;9322;50.932;5.318;2022-07-12T07:20:32;9.32;;;7.53;;
18391;SDS011;9322;50.932;5.318;2022-07-12T07:22:58;9.35;;;7.45;;
18391;SDS011;9322;50.932;5.318;2022-07-12T07:25:24;11.20;;;7.40;;
18391;SDS011;9322;50.932;5.318;2022-07-12T07:27:49;11.50;;;7.38;;
18391;SDS011;9322;50.932;5.318;2022-07-12T07:30:15;7.80;;;6.40;;
18391;SDS011;9322;50.932;5.318;2022-07-12T07:32:59;12.55;;;6.47;;
18391;SDS011;9322;50.932;5.318;2022-07-12T07:35:24;10.32;;;6.13;;
18391;SDS011;9322;50.932;5.318;2022-07-12T07:37:50;9.85;;;6.43;;
18391;SDS011;9322;50.932;5.318;2022-07-12T07:40:16;7.63;;;5.47;;
18391;SDS011;9322;50.932;5.318;2022-07-12T07:42:41;6.85;;;5.32;;
18391;SDS011;9322;50.932;5.318;2022-07-12T07:45:07;6.32;;;5.22;;
18391;SDS011;9322;50.932;5.318;2022-07-12T07:47:45;7.90;;;5.93;;
18391;SDS011;9322;50.932;5.318;2022-07-12T07:50:12;6.88;;;5.38;;
18391;SDS011;9322;50.932;5.318;2022-07-12T07:52:37;5.68;;;5.10;;
18391;SDS011;9322;50.932;5.318;2022-07-12T07:55:03;5.95;;;5.05;;
18391;SDS011;9322;50.932;5.318;2022-07-12T07:57:29;6.72;;;5.32;;
18391;SDS011;9322;50.932;5.318;2022-07-12T07:59:55;6.68;;;4.63;;
18391;SDS011;9322;50.932;5.318;2022-07-12T08:02:20;5.72;;;4.75;;
18391;SDS011;9322;50.932;5.318;2022-07-12T08:04:46;6.15;;;4.15;;
18391;SDS011;9322;50.932;5.318;2022-07-12T08:07:12;5.88;;;4.22;;
18391;SDS011;9322;50.932;5.318;2022-07-12T08:09:38;5.05;;;3.40;;
18391;SDS011;9322;50.932;5.318;2022-07-12T08:12:04;3.80;;;3.35;;
18391;SDS011;9322;50.932;5.318;2022-07-12T08:14:30;3.33;;;3.03;;
18391;SDS011;9322;50.932;5.318;2022-07-12T08:16:56;4.65;;;3.53;;
18391;SDS011;9322;50.932;5.318;2022-07-12T08:19:21;4.40;;;3.97;;
18391;SDS011;9322;50.932;5.318;2022-07-12T08:21:47;5.72;;;3.78;;
18391;SDS011;9322;50.932;5.318;2022-07-12T08:24:13;5.95;;;4.00;;
18391;SDS011;9322;50.932;5.318;2022-07-12T08:26:38;6.10;;;4.47;;
18391;SDS011;9322;50.932;5.318;2022-07-12T08:29:05;6.38;;;4.40;;
18391;SDS011;9322;50.932;5.318;2022-07-12T08:31:31;5.28;;;4.50;;
18391;SDS011;9322;50.932;5.318;2022-07-12T08:33:56;7.22;;;4.78;;
18391;SDS011;9322;50.932;5.318;2022-07-12T08:36:22;5.68;;;4.40;;
18391;SDS011;9322;50.932;5.318;2022-07-12T08:38:47;5.50;;;4.28;;
18391;SDS011;9322;50.932;5.318;2022-07-12T08:41:13;6.50;;;4.60;;
18391;SDS011;9322;50.932;5.318;2022-07-12T08:43:39;7.13;;;4.95;;
18391;SDS011;9322;50.932;5.318;2022-07-12T08:46:06;8.00;;;5.28;;
18391;SDS011;9322;50.932;5.318;2022-07-12T08:48:36;9.15;;;4.38;;
18391;SDS011;9322;50.932;5.318;2022-07-12T08:51:06;5.93;;;4.80;;
18391;SDS011;9322;50.932;5.318;2022-07-12T08:53:34;7.18;;;4.32;;
18391;SDS011;9322;50.932;5.318;2022-07-12T08:56:00;4.95;;;4.35;;
18391;SDS011;9322;50.932;5.318;2022-07-12T08:58:28;6.53;;;4.50;;
18391;SDS011;9322;50.932;5.318;2022-07-12T09:00:53;5.95;;;5.10;;
18391;SDS011;9322;50.932;5.318;2022-07-12T09:03:19;5.93;;;4.85;;
18391;SDS011;9322;50.932;5.318;2022-07-12T09:05:54;6.78;;;4.63;;
18391;SDS011;9322;50.932;5.318;2022-07-12T09:08:39;9.52;;;4.30;;
18391;SDS011;9322;50.932;5.318;2022-07-12T09:11:07;7.25;;;4.47;;
18391;SDS011;9322;50.932;5.318;2022-07-12T09:13:53;5.82;;;5.22;;
18391;SDS011;9322;50.932;5.318;2022-07-12T09:16:21;5.78;;;4.72;;
18391;SDS011;9322;50.932;5.318;2022-07-12T09:18:48;4.53;;;4.07;;
18391;SDS011;9322;50.932;5.318;2022-07-12T09:21:24;7.45;;;4.60;;
18391;SDS011;9322;50.932;5.318;2022-07-12T09:23:54;5.47;;;4.80;;
18391;SDS011;9322;50.932;5.318;2022-07-12T09:26:21;7.50;;;4.43;;
18391;SDS011;9322;50.932;5.318;2022-07-12T09:28:49;6.30;;;4.57;;
18391;SDS011;9322;50.932;5.318;2022-07-12T09:31:16;5.35;;;4.85;;
18391;SDS011;9322;50.932;5.318;2022-07-12T09:33:58;6.50;;;4.30;;
18391;SDS011;9322;50.932;5.318;2022-07-12T09:36:54;7.75;;;5.68;;
18391;SDS011;9322;50.932;5.318;2022-07-12T09:39:22;6.45;;;5.80;;
18391;SDS011;9322;50.932;5.318;2022-07-12T09:41:49;5.93;;;5.13;;
18391;SDS011;9322;50.932;5.318;2022-07-12T09:44:14;7.22;;;6.20;;
18391;SDS011;9322;50.932;5.318;2022-07-12T09:46:43;7.63;;;6.00;;
18391;SDS011;9322;50.932;5.318;2022-07-12T09:49:09;8.32;;;4.90;;
18391;SDS011;9322;50.932;5.318;2022-07-12T09:51:35;6.57;;;5.20;;
18391;SDS011;9322;50.932;5.318;2022-07-12T09:54:03;7.70;;;5.38;;
18391;SDS011;9322;50.932;5.318;2022-07-12T09:56:32;8.57;;;5.32;;
18391;SDS011;9322;50.932;5.318;2022-07-12T09:59:00;6.28;;;5.05;;
18391;SDS011;9322;50.932;5.318;2022-07-12T10:01:26;6.97;;;5.10;;
18391;SDS011;9322;50.932;5.318;2022-07-12T10:03:56;6.63;;;4.57;;
18391;SDS011;9322;50.932;5.318;2022-07-12T10:06:28;6.43;;;4.82;;
18391;SDS011;9322;50.932;5.318;2022-07-12T10:08:56;5.55;;;4.88;;
18391;SDS011;9322;50.932;5.318;2022-07-12T10:11:22;7.40;;;5.30;;
18391;SDS011;9322;50.932;5.318;2022-07-12T10:13:49;5.97;;;5.05;;
18391;SDS011;9322;50.932;5.318;2022-07-12T10:16:16;5.82;;;5.22;;
18391;SDS011;9322;50.932;5.318;2022-07-12T10:22:01;7.18;;;5.72;;
18391;SDS011;9322;50.932;5.318;2022-07-12T10:26:58;4.65;;;4.15;;
18391;SDS011;9322;50.932;5.318;2022-07-12T10:29:24;6.53;;;4.80;;
18391;SDS011;9322;50.932;5.318;2022-07-12T10:31:50;5.07;;;4.10;;
18391;SDS011;9322;50.932;5.318;2022-07-12T10:34:20;7.00;;;3.70;;
18391;SDS011;9322;50.932;5.318;2022-07-12T10:39:25;4.72;;;3.88;;
18391;SDS011;9322;50.932;5.318;2022-07-12T10:44:39;4.55;;;3.83;;
18391;SDS011;9322;50.932;5.318;2022-07-12T10:47:09;4.72;;;4.22;;
18391;SDS011;9322;50.932;5.318;2022-07-12T10:49:41;6.35;;;4.47;;
18391;SDS011;9322;50.932;5.318;2022-07-12T10:52:13;5.93;;;4.50;;
18391;SDS011;9322;50.932;5.318;2022-07-12T10:54:41;7.65;;;4.28;;
18391;SDS011;9322;50.932;5.318;2022-07-12T10:57:43;6.28;;;3.50;;
18391;SDS011;9322;50.932;5.318;2022-07-12T11:00:11;4.10;;;3.70;;
18391;SDS011;9322;50.932;5.318;2022-07-12T11:02:38;4.95;;;3.83;;
18391;SDS011;9322;50.932;5.318;2022-07-12T11:05:04;8.85;;;4.35;;
18391;SDS011;9322;50.932;5.318;2022-07-12T11:07:30;7.65;;;3.80;;
18391;SDS011;9322;50.932;5.318;2022-07-12T11:09:56;4.15;;;3.75;;
18391;SDS011;9322;50.932;5.318;2022-07-12T11:12:32;5.28;;;4.47;;
18391;SDS011;9322;50.932;5.318;2022-07-12T11:14:58;5.78;;;4.38;;
18391;SDS011;9322;50.932;5.318;2022-07-12T11:17:31;6.85;;;3.80;;
18391;SDS011;9322;50.932;5.318;2022-07-12T11:20:04;4.03;;;3.63;;
18391;SDS011;9322;50.932;5.318;2022-07-12T11:22:35;6.88;;;4.35;;
18391;SDS011;9322;50.932;5.318;2022-07-12T11:25:03;4.57;;;3.70;;
18391;SDS011;9322;50.932;5.318;2022-07-12T11:27:30;6.50;;;4.03;;
18391;SDS011;9322;50.932;5.318;2022-07-12T11:29:59;7.03;;;4.50;;
18391;SDS011;9322;50.932;5.318;2022-07-12T11:32:39;5.68;;;4.47;;
18391;SDS011;9322;50.932;5.318;2022-07-12T11:35:19;4.95;;;3.63;;
18391;SDS011;9322;50.932;5.318;2022-07-12T11:37:50;5.93;;;3.88;;
18391;SDS011;9322;50.932;5.318;2022-07-12T11:40:24;4.53;;;4.07;;
18391;SDS011;9322;50.932;5.318;2022-07-12T11:43:00;5.53;;;4.30;;
18391;SDS011;9322;50.932;5.318;2022-07-12T11:45:28;5.88;;;4.00;;
18391;SDS011;9322;50.932;5.318;2022-07-12T11:47:55;4.00;;;3.60;;
18391;SDS011;9322;50.932;5.318;2022-07-12T11:50:30;4.22;;;3.83;;
18391;SDS011;9322;50.932;5.318;2022-07-12T11:52:56;6.25;;;4.10;;
18391;SDS011;9322;50.932;5.318;2022-07-12T11:55:22;5.40;;;4.22;;
18391;SDS011;9322;50.932;5.318;2022-07-12T11:57:48;6.25;;;3.67;;
18391;SDS011;9322;50.932;5.318;2022-07-12T12:00:15;6.10;;;3.50;;
18391;SDS011;9322;50.932;5.318;2022-07-12T12:02:42;4.57;;;3.75;;
18391;SDS011;9322;50.932;5.318;2022-07-12T12:05:07;3.83;;;3.50;;
18391;SDS011;9322;50.932;5.318;2022-07-12T12:07:33;4.25;;;3.58;;
18391;SDS011;9322;50.932;5.318;2022-07-12T12:12:35;4.57;;;3.40;;
18391;SDS011;9322;50.932;5.318;2022-07-12T12:15:07;4.32;;;3.13;;
18391;SDS011;9322;50.932;5.318;2022-07-12T12:17:52;5.72;;;3.17;;
18391;SDS011;9322;50.932;5.318;2022-07-12T12:20:37;4.20;;;3.33;;
18391;SDS011;9322;50.932;5.318;2022-07-12T12:23:04;3.78;;;3.10;;
18391;SDS011;9322;50.932;5.318;2022-07-12T12:25:32;4.40;;;3.20;;
18391;SDS011;9322;50.932;5.318;2022-07-12T12:27:59;3.65;;;2.90;;
18391;SDS011;9322;50.932;5.318;2022-07-12T12:30:31;5.20;;;3.42;;
18391;SDS011;9322;50.932;5.318;2022-07-12T12:32:59;5.05;;;3.55;;
18391;SDS011;9322;50.932;5.318;2022-07-12T12:37:58;3.42;;;3.10;;
18391;SDS011;9322;50.932;5.318;2022-07-12T12:40:29;5.05;;;3.50;;
18391;SDS011;9322;50.932;5.318;2022-07-12T12:43:13;3.40;;;3.03;;
18391;SDS011;9322;50.932;5.318;2022-07-12T12:45:48;3.72;;;3.28;;
18391;SDS011;9322;50.932;5.318;2022-07-12T12:48:22;3.95;;;3.40;;
18391;SDS011;9322;50.932;5.318;2022-07-12T12:50:52;5.95;;;2.97;;
18391;SDS011;9322;50.932;5.318;2022-07-12T12:53:23;3.55;;;2.85;;
18391;SDS011;9322;50.932;5.318;2022-07-12T12:55:53;3.70;;;2.97;;
18391;SDS011;9322;50.932;5.318;2022-07-12T12:58:21;3.75;;;2.78;;
18391;SDS011;9322;50.932;5.318;2022-07-12T13:00:49;3.15;;;2.70;;
18391;SDS011;9322;50.932;5.318;2022-07-12T13:03:17;7.35;;;2.95;;
18391;SDS011;9322;50.932;5.318;2022-07-12T13:05:44;3.83;;;3.10;;
18391;SDS011;9322;50.932;5.318;2022-07-12T13:08:11;5.25;;;3.00;;
18391;SDS011;9322;50.932;5.318;2022-07-12T13:10:38;4.55;;;3.10;;
18391;SDS011;9322;50.932;5.318;2022-07-12T13:13:05;3.80;;;2.80;;
18391;SDS011;9322;50.932;5.318;2022-07-12T13:15:34;5.65;;;2.90;;
18391;SDS011;9322;50.932;5.318;2022-07-12T13:18:00;3.53;;;2.42;;
18391;SDS011;9322;50.932;5.318;2022-07-12T13:20:27;3.67;;;2.70;;
18391;SDS011;9322;50.932;5.318;2022-07-12T13:22:53;3.03;;;2.50;;
18391;SDS011;9322;50.932;5.318;2022-07-12T13:25:19;5.55;;;2.58;;
18391;SDS011;9322;50.932;5.318;2022-07-12T13:27:45;3.97;;;2.70;;
18391;SDS011;9322;50.932;5.318;2022-07-12T13:30:12;3.97;;;2.70;;
18391;SDS011;9322;50.932;5.318;2022-07-12T13:32:38;2.78;;;2.50;;
18391;SDS011;9322;50.932;5.318;2022-07-12T13:35:06;3.88;;;2.80;;
18391;SDS011;9322;50.932;5.318;2022-07-12T13:37:32;4.03;;;2.55;;
18391;SDS011;9322;50.932;5.318;2022-07-12T13:39:59;6.45;;;3.47;;
18391;SDS011;9322;50.932;5.318;2022-07-12T13:42:57;4.53;;;3.30;;
18391;SDS011;9322;50.932;5.318;2022-07-12T13:45:24;6.13;;;2.90;;
18391;SDS011;9322;50.932;5.318;2022-07-12T13:47:50;5.57;;;3.20;;
18391;SDS011;9322;50.932;5.318;2022-07-12T13:50:18;4.75;;;2.55;;
18391;SDS011;9322;50.932;5.318;2022-07-12T13:52:45;8.13;;;2.45;;
18391;SDS011;9322;50.932;5.318;2022-07-12T13:55:13;4.97;;;2.70;;
18391;SDS011;9322;50.932;5.318;2022-07-12T13:57:40;10.70;;;2.70;;
18391;SDS011;9322;50.932;5.318;2022-07-12T14:00:10;3.60;;;2.35;;
18391;SDS011;9322;50.932;5.318;2022-07-12T14:02:38;3.03;;;2.55;;
18391;SDS011;9322;50.932;5.318;2022-07-12T14:05:06;7.40;;;2.70;;
18391;SDS011;9322;50.932;5.318;2022-07-12T14:07:32;5.60;;;2.70;;
18391;SDS011;9322;50.932;5.318;2022-07-12T14:09:59;3.17;;;2.47;;
18391;SDS011;9322;50.932;5.318;2022-07-12T14:12:25;2.90;;;2.40;;
18391;SDS011;9322;50.932;5.318;2022-07-12T14:14:51;3.10;;;2.55;;
18391;SDS011;9322;50.932;5.318;2022-07-12T14:17:36;2.72;;;2.40;;
18391;SDS011;9322;50.932;5.318;2022-07-12T14:20:06;3.25;;;2.50;;
18391;SDS011;9322;50.932;5.318;2022-07-12T14:22:33;3.05;;;2.40;;
18391;SDS011;9322;50.932;5.318;2022-07-12T14:24:59;4.65;;;2.63;;
18391;SDS011;9322;50.932;5.318;2022-07-12T14:27:24;2.85;;;2.58;;
18391;SDS011;9322;50.932;5.318;2022-07-12T14:29:50;4.63;;;3.00;;
18391;SDS011;9322;50.932;5.318;2022-07-12T14:32:16;4.60;;;2.67;;
18391;SDS011;9322;50.932;5.318;2022-07-12T14:34:41;4.68;;;2.70;;
18391;SDS011;9322;50.932;5.318;2022-07-12T14:37:07;5.13;;;2.63;;
18391;SDS011;9322;50.932;5.318;2022-07-12T14:39:33;4.47;;;2.75;;
18391;SDS011;9322;50.932;5.318;2022-07-12T14:41:59;3.45;;;2.28;;
18391;SDS011;9322;50.932;5.318;2022-07-12T14:44:25;3.33;;;2.22;;
18391;SDS011;9322;50.932;5.318;2022-07-12T14:46:51;11.65;;;2.70;;
18391;SDS011;9322;50.932;5.318;2022-07-12T14:49:21;4.35;;;2.53;;
18391;SDS011;9322;50.932;5.318;2022-07-12T14:51:47;5.20;;;2.30;;
18391;SDS011;9322;50.932;5.318;2022-07-12T14:54:12;5.43;;;2.50;;
18391;SDS011;9322;50.932;5.318;2022-07-12T14:56:38;3.15;;;2.85;;
18391;SDS011;9322;50.932;5.318;2022-07-12T14:59:04;5.28;;;2.50;;
18391;SDS011;9322;50.932;5.318;2022-07-12T15:01:30;3.30;;;2.50;;
18391;SDS011;9322;50.932;5.318;2022-07-12T15:03:56;3.22;;;2.55;;
18391;SDS011;9322;50.932;5.318;2022-07-12T15:06:22;3.42;;;2.35;;
18391;SDS011;9322;50.932;5.318;2022-07-12T15:08:50;9.13;;;2.70;;
18391;SDS011;9322;50.932;5.318;2022-07-12T15:11:15;4.50;;;2.40;;
18391;SDS011;9322;50.932;5.318;2022-07-12T15:13:41;3.53;;;2.30;;